Hardwood, Louisiana
Current Conditions -  °F | °C
As of 7:15 AM on Monday 22 Dec 2014 (Local Time) from KHZR Reporting Station
Moderate Fog Moderate Fog  
Wind Chill: 12°   Ceiling: 200
Heat Index: 12°   Visibility: 0.25mi
Dew Point: 12°   Wind: 0mph
Humidity: 99%   Direction: NA
Pressure: 29.82"   Gusts: NA
Location:  30.8804°N, 91.4243°W
Report Text: KHZR 221315Z AUTO 00000KT 1/4SM FG OVC002 12/12 A2982 RMK AO2 T01230121
Loading
Personal Weather Stations






























Interactive Weather Map New forecast layout! Learn more

10-Day Weather Forecast

Advertisements
Track Severe Weather on mobile